Time;durP1;ratioP1;P1;durP2;ratioP2;P2;SDS_P1;SDS_P2;PMS_P1;PMS_P2;Temp;Humidity;BMP_temperature;BMP_pressure;BME280_temperature;BME280_humidity;BME280_pressure;Samples;Min_cycle;Max_cycle;Signal;HPM_P1;HPM_P2
2023/06/10 00:02:16;;;;;;;;;;;;;;;20.82;41.77;100909.44;105544;1296;59068;-85
2023/06/10 00:05:03;;;;;;;;;;;;;;;20.82;41.82;100910.52;105563;1297;59347;-85
2023/06/10 00:07:49;;;;;;;;;;;;;;;20.81;42.11;100915.30;105510;1297;73147;-85
2023/06/10 00:10:36;;;;;;;;;;;;;;;20.74;42.10;100915.19;105539;1298;67553;-85
2023/06/10 00:13:21;;;;;;;;;;;;;;;20.67;42.16;100912.41;105460;1297;72020;-85
2023/06/10 00:16:07;;;;;;;;;;;;;;;20.64;42.27;100908.16;105508;1297;58777;-85
2023/06/10 00:18:55;;;;;;;;;;;;;;;20.66;42.27;100910.00;105504;1297;59179;-85
2023/06/10 00:21:41;;;;;;;;;;;;;;;20.64;42.23;100907.13;105472;1298;74672;-85
2023/06/10 00:24:27;;;;;;;;;;;;;;;20.58;42.56;100905.17;105465;1299;68556;-85
2023/06/10 00:27:13;;;;;;;;;;;;;;;20.52;42.59;100904.23;105532;1297;71237;-85
2023/06/10 00:29:59;;;;;;;;;;;;;;;20.46;42.56;100904.02;105503;1299;59373;-86
2023/06/10 00:32:45;;;;;;;;;;;;;;;20.39;42.81;100903.85;105522;1297;59182;-85
2023/06/10 00:35:31;;;;;;;;;;;;;;;20.32;42.81;100903.66;105488;1297;74548;-85
2023/06/10 00:38:16;;;;;;;;;;;;;;;20.27;42.83;100907.27;105501;1297;68313;-85
2023/06/10 00:41:02;;;;;;;;;;;;;;;20.24;42.97;100910.62;105513;1299;71188;-85
2023/06/10 00:43:48;;;;;;;;;;;;;;;20.22;42.91;100907.08;105468;1298;59141;-85
2023/06/10 00:46:35;;;;;;;;;;;;;;;20.18;43.14;100905.86;105501;1300;59964;-85
2023/06/10 00:49:20;;;;;;;;;;;;;;;20.14;43.17;100907.43;105477;1298;74179;-85
2023/06/10 00:52:07;;;;;;;;;;;;;;;20.11;43.19;100910.21;105405;1300;67366;-85
2023/06/10 00:54:53;;;;;;;;;;;;;;;20.04;43.31;100909.86;105462;1297;72270;-85
2023/06/10 00:57:39;;;;;;;;;;;;;;;20.00;43.48;100912.90;105470;1299;59323;-85
2023/06/10 01:00:25;;;;;;;;;;;;;;;19.95;43.39;100915.23;105493;1297;59438;-85
2023/06/10 01:03:11;;;;;;;;;;;;;;;19.92;43.70;100917.49;105522;1300;74729;-85
2023/06/10 01:06:01;;;;;;;;;;;;;;;19.89;43.57;100918.54;105532;1298;67401;-85
2023/06/10 01:08:53;;;;;;;;;;;;;;;19.84;43.72;100921.71;105455;1298;72493;-85
2023/06/10 01:11:46;;;;;;;;;;;;;;;19.78;43.73;100922.71;105543;1297;59032;-85
2023/06/10 01:14:32;;;;;;;;;;;;;;;19.72;43.91;100924.44;105500;1299;59328;-85
2023/06/10 01:17:18;;;;;;;;;;;;;;;19.68;43.99;100923.44;105395;1299;73554;-85
2023/06/10 01:20:07;;;;;;;;;;;;;;;19.64;44.19;100923.45;105502;1297;67801;-85
2023/06/10 01:22:57;;;;;;;;;;;;;;;19.56;44.19;100920.33;105508;1297;72256;-85
2023/06/10 01:25:51;;;;;;;;;;;;;;;19.52;44.18;100921.40;105398;1297;59473;-86
2023/06/10 01:28:43;;;;;;;;;;;;;;;19.50;44.32;100920.92;105462;1299;59117;-85
2023/06/10 01:31:33;;;;;;;;;;;;;;;19.48;44.38;100921.37;105530;1299;74129;-86
2023/06/10 01:34:21;;;;;;;;;;;;;;;19.45;44.31;100922.39;105494;1297;68025;-85
2023/06/10 01:37:08;;;;;;;;;;;;;;;19.45;44.41;100922.75;105502;1297;72588;-85
2023/06/10 01:39:56;;;;;;;;;;;;;;;19.42;44.54;100921.67;105519;1297;58997;-85
2023/06/10 01:42:42;;;;;;;;;;;;;;;19.38;44.56;100917.83;105521;1297;59329;-85
2023/06/10 01:45:28;;;;;;;;;;;;;;;19.37;44.71;100918.92;105494;1299;74298;-85
2023/06/10 01:48:14;;;;;;;;;;;;;;;19.37;44.71;100921.05;105516;1299;68640;-85
2023/06/10 01:51:00;;;;;;;;;;;;;;;19.37;44.67;100927.88;105474;1301;71478;-85
2023/06/10 01:53:46;;;;;;;;;;;;;;;19.35;44.81;100930.91;105506;1299;59346;-86
2023/06/10 01:56:32;;;;;;;;;;;;;;;19.33;44.95;100933.82;105492;1297;59519;-86
2023/06/10 01:59:18;;;;;;;;;;;;;;;19.29;45.00;100937.85;105419;1297;74930;-86
2023/06/10 02:02:05;;;;;;;;;;;;;;;19.27;45.12;100940.05;105489;1299;67621;-85
2023/06/10 02:04:51;;;;;;;;;;;;;;;19.25;45.10;100941.71;105512;1298;72402;-86
2023/06/10 02:07:37;;;;;;;;;;;;;;;19.25;45.23;100947.63;105361;1299;59665;-85
2023/06/10 02:10:23;;;;;;;;;;;;;;;19.27;45.23;100951.79;105437;1301;59309;-85
2023/06/10 02:13:09;;;;;;;;;;;;;;;19.26;45.39;100952.86;105457;1297;73170;-85
2023/06/10 02:15:55;;;;;;;;;;;;;;;19.24;45.26;100955.60;105461;1300;67209;-85
2023/06/10 02:18:42;;;;;;;;;;;;;;;19.21;45.40;100957.99;105377;1297;71251;-86
2023/06/10 02:21:28;;;;;;;;;;;;;;;19.19;45.50;100961.94;105503;1297;59023;-86
2023/06/10 02:24:14;;;;;;;;;;;;;;;19.15;45.61;100963.84;105523;1299;59369;-86
2023/06/10 02:27:01;;;;;;;;;;;;;;;19.10;45.63;100959.21;105506;1297;73394;-86
2023/06/10 02:29:47;;;;;;;;;;;;;;;19.10;45.64;100962.89;105486;1297;68166;-86
2023/06/10 02:32:33;;;;;;;;;;;;;;;19.07;45.76;100967.18;105490;1297;71181;-86
2023/06/10 02:35:19;;;;;;;;;;;;;;;19.09;45.84;100973.39;105533;1297;59163;-86
2023/06/10 02:38:05;;;;;;;;;;;;;;;19.12;45.78;100972.02;105532;1298;59180;-86
2023/06/10 02:40:51;;;;;;;;;;;;;;;19.13;45.91;100975.12;105422;1299;74121;-86
2023/06/10 02:43:37;;;;;;;;;;;;;;;19.11;45.99;100978.20;105458;1297;67630;-86
2023/06/10 02:46:22;;;;;;;;;;;;;;;19.10;46.10;100981.05;105349;1297;73202;-86
2023/06/10 02:49:08;;;;;;;;;;;;;;;19.09;46.14;100983.56;105475;1300;59536;-86
2023/06/10 02:51:56;;;;;;;;;;;;;;;19.09;46.09;100983.38;105544;1297;59041;-86
2023/06/10 02:54:42;;;;;;;;;;;;;;;19.10;46.13;100986.48;105458;1299;72912;-86
2023/06/10 02:57:28;;;;;;;;;;;;;;;19.13;46.25;100988.59;105560;1297;67541;-86
2023/06/10 03:00:15;;;;;;;;;;;;;;;19.16;46.17;100991.61;105447;1298;71208;-86
2023/06/10 03:03:03;;;;;;;;;;;;;;;19.17;46.15;100995.23;105501;1297;58984;-86
2023/06/10 03:05:49;;;;;;;;;;;;;;;19.21;46.18;101000.13;105505;1299;60470;-86
2023/06/10 03:08:34;;;;;;;;;;;;;;;19.24;46.16;101000.87;105409;1299;74374;-86
2023/06/10 03:11:20;;;;;;;;;;;;;;;19.28;46.20;101000.30;105537;1297;68124;-86
2023/06/10 03:14:06;;;;;;;;;;;;;;;19.34;46.22;101006.48;105435;1297;71328;-86
2023/06/10 03:16:53;;;;;;;;;;;;;;;19.38;46.28;101008.58;105433;1299;58897;-86
2023/06/10 03:19:39;;;;;;;;;;;;;;;19.41;46.12;101010.34;105477;1297;59821;-86
2023/06/10 03:22:25;;;;;;;;;;;;;;;19.46;46.22;101013.41;105525;1297;74727;-86
2023/06/10 03:25:13;;;;;;;;;;;;;;;19.53;46.19;101010.20;105582;1297;67251;-86
2023/06/10 03:27:59;;;;;;;;;;;;;;;19.58;46.18;101015.52;105447;1297;73099;-86
2023/06/10 03:30:45;;;;;;;;;;;;;;;19.64;46.08;101025.57;105345;1298;59066;-86
2023/06/10 03:33:32;;;;;;;;;;;;;;;19.68;46.01;101028.90;105534;1299;60408;-86
2023/06/10 03:36:18;;;;;;;;;;;;;;;19.74;45.89;101027.05;105530;1297;74299;-86
2023/06/10 03:39:04;;;;;;;;;;;;;;;19.78;46.02;101029.24;105485;1297;67321;-86
2023/06/10 03:41:51;;;;;;;;;;;;;;;19.81;45.80;101037.34;105432;1297;71486;-86
2023/06/10 03:44:38;;;;;;;;;;;;;;;19.85;46.06;101046.41;105423;1297;59034;-86
2023/06/10 03:47:23;;;;;;;;;;;;;;;19.89;45.89;101054.98;105520;1298;59921;-86
2023/06/10 03:50:10;;;;;;;;;;;;;;;19.92;45.96;101059.04;105421;1297;73260;-86
2023/06/10 03:52:56;;;;;;;;;;;;;;;19.96;45.86;101065.85;105489;1297;68528;-86
2023/06/10 03:55:42;;;;;;;;;;;;;;;19.98;45.80;101066.11;105470;1299;72047;-86
2023/06/10 03:58:28;;;;;;;;;;;;;;;19.99;45.85;101072.35;105566;1297;59034;-86
2023/06/10 04:01:14;;;;;;;;;;;;;;;20.01;45.88;101078.05;105467;1299;59910;-86
2023/06/10 04:04:01;;;;;;;;;;;;;;;20.00;45.83;101083.14;105508;1299;73483;-86
2023/06/10 04:06:48;;;;;;;;;;;;;;;20.03;45.92;101084.95;105461;1299;68451;-86
2023/06/10 04:09:35;;;;;;;;;;;;;;;20.05;46.00;101091.16;105511;1297;71120;-87
2023/06/10 04:12:21;;;;;;;;;;;;;;;20.06;45.80;101099.14;105433;1297;59090;-86
2023/06/10 04:15:07;;;;;;;;;;;;;;;20.06;46.09;101104.92;105391;1299;59362;-87
2023/06/10 04:17:53;;;;;;;;;;;;;;;20.08;46.17;101103.95;105481;1298;74233;-86
2023/06/10 04:20:39;;;;;;;;;;;;;;;20.11;46.16;101106.27;105471;1297;69020;-86
2023/06/10 04:23:26;;;;;;;;;;;;;;;20.15;45.98;101107.27;105457;1297;71225;-86
2023/06/10 04:26:12;;;;;;;;;;;;;;;20.18;45.96;101112.73;105462;1300;58937;-86
2023/06/10 04:28:58;;;;;;;;;;;;;;;20.21;46.08;101117.34;105517;1299;59845;-86
2023/06/10 04:31:46;;;;;;;;;;;;;;;20.21;46.14;101118.73;105391;1298;74567;-86
2023/06/10 04:34:32;;;;;;;;;;;;;;;20.23;46.12;101119.70;105540;1297;67465;-86
2023/06/10 04:37:18;;;;;;;;;;;;;;;20.27;46.04;101124.21;105516;1297;71207;-86
2023/06/10 04:40:05;;;;;;;;;;;;;;;20.32;45.99;101125.02;105449;1297;59146;-86
2023/06/10 04:42:51;;;;;;;;;;;;;;;20.35;46.08;101127.81;105494;1299;59896;-86
2023/06/10 04:45:37;;;;;;;;;;;;;;;20.40;46.08;101127.29;105434;1299;73549;-86
2023/06/10 04:48:24;;;;;;;;;;;;;;;20.43;46.10;101133.10;105416;1298;68584;-86
2023/06/10 04:51:10;;;;;;;;;;;;;;;20.46;46.16;101135.21;105471;1297;72185;-86
2023/06/10 04:53:56;;;;;;;;;;;;;;;20.52;46.09;101141.06;105450;1299;59423;-86
2023/06/10 04:56:42;;;;;;;;;;;;;;;20.61;46.15;101148.34;105532;1298;59871;-86
2023/06/10 04:59:28;;;;;;;;;;;;;;;20.70;46.09;101154.00;105536;1297;73400;-86
2023/06/10 05:02:13;;;;;;;;;;;;;;;20.78;46.12;101157.27;105391;1297;68827;-85
2023/06/10 05:04:59;;;;;;;;;;;;;;;20.84;46.07;101162.22;105466;1297;71305;-85
2023/06/10 05:07:45;;;;;;;;;;;;;;;20.88;46.23;101165.55;105489;1296;59047;-85
2023/06/10 05:10:31;;;;;;;;;;;;;;;20.89;46.28;101169.88;105558;1297;59714;-86
2023/06/10 05:13:17;;;;;;;;;;;;;;;20.92;46.16;101172.15;105469;1299;73471;-87
2023/06/10 05:16:03;;;;;;;;;;;;;;;20.99;46.19;101179.14;105531;1299;68364;-86
2023/06/10 05:18:50;;;;;;;;;;;;;;;21.06;46.30;101178.65;105458;1297;72386;-85
2023/06/10 05:21:36;;;;;;;;;;;;;;;21.13;46.17;101182.98;105480;1297;58979;-85
2023/06/10 05:24:23;;;;;;;;;;;;;;;21.20;46.34;101182.48;105437;1297;59721;-85
2023/06/10 05:27:09;;;;;;;;;;;;;;;21.27;46.24;101182.84;105478;1300;73098;-85
2023/06/10 05:29:55;;;;;;;;;;;;;;;21.34;46.31;101183.17;105433;1301;67195;-85
2023/06/10 05:32:41;;;;;;;;;;;;;;;21.40;46.14;101181.80;105496;1297;71424;-87
2023/06/10 05:35:27;;;;;;;;;;;;;;;21.41;46.26;101183.86;105384;1300;59311;-86
2023/06/10 05:38:12;;;;;;;;;;;;;;;21.40;46.14;101184.77;105504;1297;59493;-86
2023/06/10 05:40:58;;;;;;;;;;;;;;;21.40;46.17;101186.70;105490;1298;74856;-86
2023/06/10 05:43:44;;;;;;;;;;;;;;;21.35;46.25;101183.63;105389;1297;67366;-87
2023/06/10 05:46:30;;;;;;;;;;;;;;;21.37;46.23;101187.71;105418;1299;71409;-87
2023/06/10 05:49:16;;;;;;;;;;;;;;;21.38;46.16;101185.58;105436;1297;59755;-87
2023/06/10 05:52:02;;;;;;;;;;;;;;;21.39;46.22;101182.75;105441;1297;59065;-87
2023/06/10 05:54:49;;;;;;;;;;;;;;;21.51;46.38;101182.96;105502;1297;74682;-87
2023/06/10 05:57:35;;;;;;;;;;;;;;;21.69;46.19;101185.53;105445;1297;67416;-86
2023/06/10 06:00:21;;;;;;;;;;;;;;;21.84;46.23;101187.00;105513;1297;71214;-86
2023/06/10 06:03:08;;;;;;;;;;;;;;;21.97;46.18;101185.92;105491;1296;59124;-86
2023/06/10 06:05:54;;;;;;;;;;;;;;;22.13;46.06;101182.08;105506;1297;60103;-87
2023/06/10 06:08:40;;;;;;;;;;;;;;;22.27;45.94;101183.28;105547;1297;73392;-86
2023/06/10 06:11:26;;;;;;;;;;;;;;;22.55;45.99;101186.58;105561;1297;67498;-86
2023/06/10 06:14:12;;;;;;;;;;;;;;;22.87;45.73;101181.07;105524;1298;71830;-88
2023/06/10 06:16:58;;;;;;;;;;;;;;;23.14;45.61;101182.27;105428;1297;58414;-88
2023/06/10 06:19:43;;;;;;;;;;;;;;;23.47;45.48;101177.10;105444;1297;59358;-88
2023/06/10 06:22:29;;;;;;;;;;;;;;;23.74;45.45;101171.54;105435;1297;75527;-88
2023/06/10 06:25:15;;;;;;;;;;;;;;;24.16;45.19;101170.45;105378;1297;67516;-88
2023/06/10 06:28:02;;;;;;;;;;;;;;;24.54;45.04;101172.73;105451;1297;72723;-88
2023/06/10 06:30:48;;;;;;;;;;;;;;;24.64;44.80;101172.08;105474;1297;58749;-88
2023/06/10 06:33:33;;;;;;;;;;;;;;;24.69;44.62;101177.02;105520;1297;58918;-88
2023/06/10 06:36:19;;;;;;;;;;;;;;;24.66;44.56;101177.78;105475;1297;73512;-88
2023/06/10 06:39:05;;;;;;;;;;;;;;;24.55;44.40;101173.77;105465;1297;67367;-88
2023/06/10 06:41:51;;;;;;;;;;;;;;;24.43;44.53;101177.75;105430;1297;71398;-88
2023/06/10 06:44:37;;;;;;;;;;;;;;;24.24;44.35;101176.64;105464;1297;59038;-88
2023/06/10 06:47:23;;;;;;;;;;;;;;;24.00;44.14;101181.36;105153;1299;475203;-88
2023/06/10 06:50:10;;;;;;;;;;;;;;;23.84;44.16;101185.77;105504;1302;74531;-88
2023/06/10 06:52:56;;;;;;;;;;;;;;;23.81;44.32;101184.33;105518;1297;67226;-88
2023/06/10 06:55:42;;;;;;;;;;;;;;;23.88;44.14;101183.23;105408;1297;71767;-86
2023/06/10 06:58:28;;;;;;;;;;;;;;;23.90;43.93;101183.45;105483;1299;59205;-85
2023/06/10 07:01:13;;;;;;;;;;;;;;;24.07;44.05;101181.27;105449;1297;59916;-85
2023/06/10 07:04:02;;;;;;;;;;;;;;;25.18;43.69;101175.89;105478;1299;73273;-85
2023/06/10 07:06:48;;;;;;;;;;;;;;;26.64;43.46;101182.02;105470;1298;67912;-86
2023/06/10 07:09:34;;;;;;;;;;;;;;;28.40;42.54;101181.46;105422;1299;71222;-85
2023/06/10 07:12:23;;;;;;;;;;;;;;;29.09;42.12;101185.66;105474;1297;59229;-85
2023/06/10 07:15:09;;;;;;;;;;;;;;;28.97;41.84;101184.02;105510;1298;59418;-85
2023/06/10 07:17:55;;;;;;;;;;;;;;;28.32;41.87;101183.02;105584;1297;73212;-86
2023/06/10 07:20:41;;;;;;;;;;;;;;;27.68;41.94;101191.22;105573;1297;68218;-85
2023/06/10 07:23:27;;;;;;;;;;;;;;;27.25;41.94;101195.10;105583;1296;72239;-86
2023/06/10 07:26:13;;;;;;;;;;;;;;;26.96;42.00;101192.00;105595;1297;59326;-85
2023/06/10 07:28:59;;;;;;;;;;;;;;;26.68;41.79;101195.21;105436;1297;60076;-85
2023/06/10 07:31:45;;;;;;;;;;;;;;;26.41;41.67;101192.43;105564;1298;74906;-85
2023/06/10 07:34:32;;;;;;;;;;;;;;;26.15;41.62;101190.06;105605;1298;68673;-85
2023/06/10 07:37:19;;;;;;;;;;;;;;;25.84;41.44;101195.29;105413;1302;71842;-85
2023/06/10 07:40:05;;;;;;;;;;;;;;;25.59;41.44;101196.34;105531;1297;58939;-85
2023/06/10 07:42:52;;;;;;;;;;;;;;;25.44;41.48;101196.87;105505;1297;59088;-85
2023/06/10 07:45:41;;;;;;;;;;;;;;;25.42;41.41;101197.92;105492;1297;73328;-85
2023/06/10 07:48:27;;;;;;;;;;;;;;;25.39;41.33;101201.98;105452;1296;67489;-85
2023/06/10 07:51:14;;;;;;;;;;;;;;;25.56;41.28;101206.59;105342;1299;71793;-85
2023/06/10 07:54:00;;;;;;;;;;;;;;;25.79;41.13;101204.86;105410;1297;59016;-86
2023/06/10 07:56:46;;;;;;;;;;;;;;;25.77;41.07;101204.29;105408;1299;58981;-86
2023/06/10 07:59:32;;;;;;;;;;;;;;;25.71;41.02;101204.16;105343;1297;74529;-85
2023/06/10 08:02:18;;;;;;;;;;;;;;;25.62;41.00;101204.45;105403;1297;69566;-86
2023/06/10 08:05:04;;;;;;;;;;;;;;;25.54;40.90;101202.86;105407;1297;71375;-86
2023/06/10 08:07:50;;;;;;;;;;;;;;;25.50;40.83;101201.34;105371;1299;59431;-85
2023/06/10 08:10:36;;;;;;;;;;;;;;;25.50;40.83;101200.66;105442;1299;59019;-85
2023/06/10 08:13:22;;;;;;;;;;;;;;;25.45;40.73;101201.57;105395;1297;74337;-85
2023/06/10 08:16:08;;;;;;;;;;;;;;;25.36;40.84;101203.06;105350;1300;69061;-85
2023/06/10 08:18:54;;;;;;;;;;;;;;;25.40;40.78;101203.14;105360;1297;71019;-87
2023/06/10 08:21:40;;;;;;;;;;;;;;;25.39;40.62;101203.19;105365;1299;59370;-87
2023/06/10 08:24:26;;;;;;;;;;;;;;;25.59;40.66;101208.66;105393;1297;61249;-87
2023/06/10 08:27:12;;;;;;;;;;;;;;;25.75;40.36;101212.58;105374;1297;73470;-87
2023/06/10 08:30:00;;;;;;;;;;;;;;;25.74;40.60;101208.73;105400;1297;68879;-86
2023/06/10 08:32:46;;;;;;;;;;;;;;;25.84;40.46;101214.74;105339;1297;70456;-87
2023/06/10 08:35:32;;;;;;;;;;;;;;;26.18;40.41;101216.48;105338;1297;59278;-87
2023/06/10 08:38:18;;;;;;;;;;;;;;;26.36;40.37;101213.67;105185;1298;60351;-88
2023/06/10 08:41:05;;;;;;;;;;;;;;;26.60;40.41;101209.18;105252;1297;74690;-88
2023/06/10 08:43:58;;;;;;;;;;;;;;;27.02;40.12;101208.71;105249;1297;67374;-87
2023/06/10 08:46:45;;;;;;;;;;;;;;;27.35;40.02;101207.25;105278;1299;72856;-87
2023/06/10 08:49:33;;;;;;;;;;;;;;;27.64;39.85;101201.63;105285;1300;59344;-87
2023/06/10 08:52:20;;;;;;;;;;;;;;;28.22;39.74;101199.30;105223;1298;59212;-87
2023/06/10 08:55:22;;;;;;;;;;;;;;;28.64;39.69;101198.30;105307;1297;73416;-88
2023/06/10 08:58:08;;;;;;;;;;;;;;;29.83;39.33;101195.42;105388;1297;67497;-88
2023/06/10 09:00:54;;;;;;;;;;;;;;;30.26;38.81;101193.35;105232;1297;71385;-86
2023/06/10 09:03:41;;;;;;;;;;;;;;;30.04;39.12;101194.84;105225;1299;59583;-86
2023/06/10 09:06:27;;;;;;;;;;;;;;;29.83;38.62;101194.85;105313;1302;59286;-86
2023/06/10 09:09:14;;;;;;;;;;;;;;;29.60;38.93;101198.54;105351;1297;74022;-86
2023/06/10 09:12:00;;;;;;;;;;;;;;;29.40;38.53;101198.25;105341;1297;67485;-86
2023/06/10 09:14:46;;;;;;;;;;;;;;;29.15;37.73;101199.88;105340;1297;72213;-85
2023/06/10 09:17:32;;;;;;;;;;;;;;;28.60;37.84;101201.88;105245;1298;59420;-86
2023/06/10 09:20:18;;;;;;;;;;;;;;;28.39;38.12;101201.50;105374;1298;59085;-85
2023/06/10 09:23:04;;;;;;;;;;;;;;;28.32;37.96;101199.55;105446;1297;74387;-85
2023/06/10 09:26:00;;;;;;;;;;;;;;;28.28;37.84;101205.17;105408;1297;67493;-85
2023/06/10 09:28:49;;;;;;;;;;;;;;;28.25;37.58;101206.17;105353;1296;71419;-85
2023/06/10 09:31:36;;;;;;;;;;;;;;;28.23;37.50;101204.53;105458;1296;59349;-85
2023/06/10 09:34:25;;;;;;;;;;;;;;;28.16;37.34;101202.96;105462;1296;59108;-85
2023/06/10 09:37:13;;;;;;;;;;;;;;;28.02;37.21;101206.45;105366;1297;77980;-85
2023/06/10 09:40:06;;;;;;;;;;;;;;;27.79;36.96;101210.58;105472;1297;68839;-85
2023/06/10 09:42:56;;;;;;;;;;;;;;;27.52;36.78;101211.11;105305;1297;71192;-87
2023/06/10 09:45:43;;;;;;;;;;;;;;;27.29;36.95;101208.21;105413;1298;59022;-86
2023/06/10 09:48:29;;;;;;;;;;;;;;;27.21;37.00;101210.32;105252;1297;60688;-86
2023/06/10 09:51:16;;;;;;;;;;;;;;;27.09;36.76;101208.75;105335;1297;73208;-86
2023/06/10 09:54:03;;;;;;;;;;;;;;;26.90;36.69;101203.27;105320;1299;68635;-86
2023/06/10 09:56:51;;;;;;;;;;;;;;;26.81;36.78;101200.73;105324;1296;70671;-86
2023/06/10 09:59:37;;;;;;;;;;;;;;;26.78;36.90;101202.59;105329;1300;59274;-86
2023/06/10 10:02:23;;;;;;;;;;;;;;;26.77;36.83;101201.44;105333;1297;60063;-86
2023/06/10 10:05:09;;;;;;;;;;;;;;;26.71;36.71;101208.00;105457;1299;74593;-86
2023/06/10 10:07:56;;;;;;;;;;;;;;;26.68;36.64;101200.67;105436;1300;68697;-86
2023/06/10 10:10:42;;;;;;;;;;;;;;;26.66;36.63;101203.08;105475;1297;71977;-86
2023/06/10 10:13:28;;;;;;;;;;;;;;;26.66;36.59;101202.95;105453;1300;59298;-86
2023/06/10 10:16:16;;;;;;;;;;;;;;;26.63;36.50;101196.23;105493;1297;59947;-86
2023/06/10 10:19:07;;;;;;;;;;;;;;;26.62;36.43;101197.86;105415;1300;74886;-86
2023/06/10 10:21:54;;;;;;;;;;;;;;;26.62;36.47;101195.23;105490;1297;67303;-86
2023/06/10 10:24:48;;;;;;;;;;;;;;;26.64;36.42;101195.08;105416;1297;71711;-86
2023/06/10 10:27:36;;;;;;;;;;;;;;;26.64;36.32;101194.80;105465;1297;59057;-86
2023/06/10 10:30:23;;;;;;;;;;;;;;;26.61;36.13;101197.79;105416;1297;59441;-87
2023/06/10 10:33:27;;;;;;;;;;;;;;;26.55;36.24;101202.13;105429;1299;74840;-86
2023/06/10 10:36:13;;;;;;;;;;;;;;;26.57;36.15;101197.27;105426;1298;68535;-86
2023/06/10 10:39:01;;;;;;;;;;;;;;;26.56;35.92;101198.73;105464;1299;71973;-86
2023/06/10 10:41:49;;;;;;;;;;;;;;;26.50;36.00;101192.34;105345;1300;59824;-86
2023/06/10 10:44:35;;;;;;;;;;;;;;;26.46;35.93;101197.75;105417;1300;59156;-86
2023/06/10 10:47:22;;;;;;;;;;;;;;;26.42;35.93;101188.85;105451;1297;74284;-86
2023/06/10 10:50:15;;;;;;;;;;;;;;;26.42;35.97;101180.00;105459;1297;68041;-87
2023/06/10 10:53:05;;;;;;;;;;;;;;;26.42;35.70;101180.58;105344;1297;70685;-87
2023/06/10 10:56:00;;;;;;;;;;;;;;;26.42;35.82;101179.09;105416;1297;58901;-86
2023/06/10 10:59:03;;;;;;;;;;;;;;;26.48;35.77;101171.40;105353;1300;59497;-87
2023/06/10 11:01:49;;;;;;;;;;;;;;;26.58;35.73;101165.46;105301;1297;73503;-87
2023/06/10 11:04:35;;;;;;;;;;;;;;;26.67;35.61;101163.58;105389;1297;68366;-86
2023/06/10 11:07:42;;;;;;;;;;;;;;;26.75;35.41;101166.36;105360;1299;72786;-86
2023/06/10 11:18:09;;;;;;;;;;;;;;;;;;;;;
2023/06/10 11:25:14;;;;;;;;;;;;;;;;;;;;;
2023/06/10 11:28:34;;;;;;;;;;;;;;;;;;;;;
2023/06/10 11:35:35;;;;;;;;;;;;;;;;;;;;;
2023/06/10 11:38:40;;;;;;;;;;;;;;;;;;;;;
2023/06/10 11:45:16;;;;;;;;;;;;;;;;;;;;;
2023/06/10 11:48:18;;;;;;;;;;;;;;;;;;;;;
2023/06/10 11:51:58;;;;;;;;;;;;;;;;;;;;;
2023/06/10 13:21:52;;;;;;;;;;;;;;;27.29;31.71;101128.90;87111;1291;60026;-85
2023/06/10 13:24:39;;;;;;;;;;;;;;;27.25;31.70;101126.20;105451;1297;74275;-85
2023/06/10 13:27:23;;;;;;;;;;;;;;;27.23;31.59;101133.28;105383;1296;68497;-85
2023/06/10 13:30:08;;;;;;;;;;;;;;;27.20;31.49;101135.85;105474;1297;72817;-85
2023/06/10 13:32:52;;;;;;;;;;;;;;;27.14;31.36;101132.63;105364;1296;59276;-85
2023/06/10 13:35:36;;;;;;;;;;;;;;;27.10;31.45;101127.46;105328;1297;59641;-85
2023/06/10 13:38:20;;;;;;;;;;;;;;;27.07;31.16;101122.33;105396;1296;73468;-87
2023/06/10 13:41:04;;;;;;;;;;;;;;;27.01;30.84;101123.29;105247;1296;68755;-87
2023/06/10 13:43:48;;;;;;;;;;;;;;;27.01;31.03;101127.40;105221;1298;70604;-87
2023/06/10 13:46:32;;;;;;;;;;;;;;;26.97;30.66;101124.70;105309;1300;59533;-87
2023/06/10 13:49:16;;;;;;;;;;;;;;;26.91;30.54;101119.09;105379;1297;60886;-87
2023/06/10 13:52:00;;;;;;;;;;;;;;;26.89;30.84;101117.19;105462;1296;73440;-87
2023/06/10 13:54:44;;;;;;;;;;;;;;;26.90;30.77;101114.58;105452;1297;68979;-87
2023/06/10 13:57:28;;;;;;;;;;;;;;;26.91;30.73;101116.66;105390;1297;72465;-87
2023/06/10 14:00:13;;;;;;;;;;;;;;;26.89;30.73;101118.22;105457;1296;59198;-87
2023/06/10 14:02:57;;;;;;;;;;;;;;;26.91;30.48;101117.02;105397;1297;59579;-87
2023/06/10 14:05:41;;;;;;;;;;;;;;;26.89;30.42;101122.31;105364;1297;74142;-87
2023/06/10 14:08:25;;;;;;;;;;;;;;;26.86;30.57;101116.89;105301;1297;67330;-88
2023/06/10 14:11:09;;;;;;;;;;;;;;;26.85;30.41;101111.96;105450;1296;71479;-87
2023/06/10 14:13:56;;;;;;;;;;;;;;;26.86;30.51;101111.88;105485;1297;59493;-87
2023/06/10 14:16:40;;;;;;;;;;;;;;;26.87;30.40;101109.55;105448;1296;60366;-87
2023/06/10 14:19:25;;;;;;;;;;;;;;;26.86;30.25;101108.91;105475;1297;73311;-87
2023/06/10 14:22:11;;;;;;;;;;;;;;;26.85;30.19;101109.88;105379;1298;67263;-88
2023/06/10 14:24:57;;;;;;;;;;;;;;;26.85;30.20;101112.33;105498;1297;71206;-87
2023/06/10 14:27:43;;;;;;;;;;;;;;;26.87;29.94;101115.02;105294;1296;59055;-87
2023/06/10 14:30:29;;;;;;;;;;;;;;;26.86;29.92;101112.45;105509;1296;59290;-87
2023/06/10 14:33:15;;;;;;;;;;;;;;;26.86;29.89;101109.45;105345;1297;74532;-87
2023/06/10 14:36:01;;;;;;;;;;;;;;;26.84;29.83;101107.83;105492;1297;68541;-87
2023/06/10 14:38:47;;;;;;;;;;;;;;;26.79;29.90;101113.35;105486;1297;71250;-87
2023/06/10 14:41:33;;;;;;;;;;;;;;;26.76;29.80;101112.33;105490;1296;59478;-87
2023/06/10 14:44:18;;;;;;;;;;;;;;;26.73;29.62;101116.29;105478;1297;59218;-87
2023/06/10 14:47:04;;;;;;;;;;;;;;;26.68;29.62;101118.42;105290;1298;73547;-87
2023/06/10 14:49:50;;;;;;;;;;;;;;;26.66;29.59;101115.93;105324;1296;69182;-87
2023/06/10 14:52:36;;;;;;;;;;;;;;;26.61;29.39;101120.02;105441;1297;71250;-87
2023/06/10 14:55:25;;;;;;;;;;;;;;;26.56;29.47;101113.14;105386;1296;59214;-87
2023/06/10 14:58:10;;;;;;;;;;;;;;;26.51;29.16;101115.86;105427;1297;59248;-87
2023/06/10 15:00:56;;;;;;;;;;;;;;;26.45;29.18;101110.27;105387;1297;74676;-87
2023/06/10 15:03:42;;;;;;;;;;;;;;;26.42;29.05;101116.54;105453;1297;68601;-87
2023/06/10 15:06:28;;;;;;;;;;;;;;;26.40;28.94;101113.16;105294;1296;72500;-87
2023/06/10 15:09:14;;;;;;;;;;;;;;;26.36;29.05;101110.56;105418;1298;59251;-87
2023/06/10 15:12:00;;;;;;;;;;;;;;;26.30;28.78;101113.28;105491;1297;59327;-87
2023/06/10 15:14:47;;;;;;;;;;;;;;;26.28;28.79;101118.56;105438;1297;74566;-87
2023/06/10 15:17:33;;;;;;;;;;;;;;;26.27;28.66;101116.73;105478;1297;69499;-87
2023/06/10 15:20:19;;;;;;;;;;;;;;;26.24;28.49;101120.66;105455;1297;72854;-87
2023/06/10 15:23:05;;;;;;;;;;;;;;;26.19;28.37;101118.92;105409;1296;59069;-87
2023/06/10 15:25:51;;;;;;;;;;;;;;;26.15;28.12;101130.18;105496;1296;59156;-87
2023/06/10 15:28:37;;;;;;;;;;;;;;;26.10;28.27;101127.48;105439;1297;73484;-87
2023/06/10 15:31:22;;;;;;;;;;;;;;;26.06;28.11;101124.59;105457;1296;68389;-87
2023/06/10 15:34:08;;;;;;;;;;;;;;;26.03;28.14;101126.08;105490;1297;71404;-87
2023/06/10 15:36:54;;;;;;;;;;;;;;;25.97;28.08;101123.88;105451;1297;58978;-87
2023/06/10 15:39:40;;;;;;;;;;;;;;;25.89;27.64;101125.90;105402;1297;59204;-87
2023/06/10 15:42:26;;;;;;;;;;;;;;;25.81;27.70;101123.29;105322;1298;73463;-87
2023/06/10 15:45:12;;;;;;;;;;;;;;;25.76;27.59;101123.81;105468;1297;69669;-87
2023/06/10 15:47:58;;;;;;;;;;;;;;;25.75;27.73;101120.86;105437;1300;72518;-87
2023/06/10 15:50:45;;;;;;;;;;;;;;;25.76;27.75;101130.73;105476;1297;59019;-87
2023/06/10 15:53:30;;;;;;;;;;;;;;;25.73;27.47;101121.20;105483;1297;59743;-86
2023/06/10 15:56:16;;;;;;;;;;;;;;;25.69;27.42;101125.02;105490;1297;75008;-87
2023/06/10 15:59:02;;;;;;;;;;;;;;;25.66;27.41;101122.94;105344;1297;69534;-87
2023/06/10 16:01:48;;;;;;;;;;;;;;;25.65;27.24;101126.20;105233;1297;72262;-87
2023/06/10 16:04:34;;;;;;;;;;;;;;;25.64;27.32;101129.08;105372;1297;59300;-87